Time;durP1;ratioP1;P1;durP2;ratioP2;P2;SDS_P1;SDS_P2;PMS_P1;PMS_P2;Temp;Humidity;BMP_temperature;BMP_pressure;BME280_temperature;BME280_humidity;BME280_pressure;Samples;Min_cycle;Max_cycle;Signal;HPM_P1;HPM_P2
2024/01/25 00:00:25;;;;;;;86.22;81.13;;;;;;;;;;5004504;28;20437;-69
2024/01/25 00:02:52;;;;;;;87.30;82.17;;;;;;;;;;5002088;28;20476;-69
2024/01/25 00:05:19;;;;;;;77.05;72.47;;;;;;;;;;5010862;28;20434;-69
2024/01/25 00:07:50;;;;;;;82.90;77.93;;;;;;;;;;5008311;28;20427;-69
2024/01/25 00:10:18;;;;;;;90.65;85.30;;;;;;;;;;4996378;28;20780;-68
2024/01/25 00:12:48;;;;;;;90.20;84.30;;;;;;;;;;5004987;28;20525;-69
2024/01/25 00:15:16;;;;;;;89.70;84.37;;;;;;;;;;5004296;28;20437;-69
2024/01/25 00:17:46;;;;;;;85.90;80.82;;;;;;;;;;5011247;28;20933;-68
2024/01/25 00:20:13;;;;;;;91.45;86.13;;;;;;;;;;5006168;28;20444;-69
2024/01/25 00:22:41;;;;;;;93.00;87.63;;;;;;;;;;5018424;28;20457;-69
2024/01/25 00:25:08;;;;;;;99.28;93.57;;;;;;;;;;5009760;28;20430;-69
2024/01/25 00:27:36;;;;;;;105.40;99.43;;;;;;;;;;5005198;28;20441;-69
2024/01/25 00:30:04;;;;;;;108.18;102.03;;;;;;;;;;5011144;28;20461;-69
2024/01/25 00:32:31;;;;;;;97.28;91.40;;;;;;;;;;5020737;28;20499;-69
2024/01/25 00:34:59;;;;;;;100.95;94.95;;;;;;;;;;5001658;28;20462;-69
2024/01/25 00:37:27;;;;;;;113.23;106.67;;;;;;;;;;5001667;28;20436;-69
2024/01/25 00:39:54;;;;;;;100.70;94.88;;;;;;;;;;5011509;28;21043;-69
2024/01/25 00:42:23;;;;;;;106.10;99.90;;;;;;;;;;5020534;28;20441;-69
2024/01/25 00:44:50;;;;;;;95.23;89.63;;;;;;;;;;5022296;28;20583;-69
2024/01/25 00:47:17;;;;;;;92.65;87.32;;;;;;;;;;5025479;28;20461;-69
2024/01/25 00:49:45;;;;;;;104.50;98.40;;;;;;;;;;5022281;28;20958;-69
2024/01/25 00:52:12;;;;;;;103.95;98.00;;;;;;;;;;5018143;28;20947;-69
2024/01/25 00:54:42;;;;;;;106.00;100.07;;;;;;;;;;5009761;28;20544;-69
2024/01/25 00:57:10;;;;;;;101.18;95.30;;;;;;;;;;5004993;28;20974;-69
2024/01/25 00:59:38;;;;;;;100.88;94.97;;;;;;;;;;5013407;28;20966;-69
2024/01/25 01:02:06;;;;;;;106.07;100.05;;;;;;;;;;5013845;28;20469;-69
2024/01/25 01:04:35;;;;;;;102.18;96.32;;;;;;;;;;5017042;28;20534;-70
2024/01/25 01:07:20;;;;;;;99.43;93.67;;;;;;;;;;5000497;28;21002;-70
2024/01/25 01:09:47;;;;;;;98.82;93.28;;;;;;;;;;5010703;28;20426;-70
2024/01/25 01:12:16;;;;;;;108.67;102.43;;;;;;;;;;5028625;28;20437;-70
2024/01/25 01:14:46;;;;;;;106.38;100.28;;;;;;;;;;5014325;28;20530;-67
2024/01/25 01:17:14;;;;;;;104.85;98.97;;;;;;;;;;4991098;28;20440;-67
2024/01/25 01:19:41;;;;;;;105.57;99.50;;;;;;;;;;4993500;28;20442;-67
2024/01/25 01:22:08;;;;;;;98.47;92.80;;;;;;;;;;5024283;28;20469;-70
2024/01/25 01:24:39;;;;;;;137.02;129.30;;;;;;;;;;4982421;28;20427;-70
2024/01/25 01:27:06;;;;;;;103.77;97.77;;;;;;;;;;5010090;28;20999;-67
2024/01/25 01:29:33;;;;;;;91.20;85.97;;;;;;;;;;5003000;28;21004;-69
2024/01/25 01:32:03;;;;;;;103.45;97.50;;;;;;;;;;5013651;28;20438;-68
2024/01/25 01:34:33;;;;;;;105.13;99.05;;;;;;;;;;5009356;28;20460;-68
2024/01/25 01:37:01;;;;;;;92.60;87.25;;;;;;;;;;5008913;28;20432;-68
2024/01/25 01:39:28;;;;;;;90.35;85.18;;;;;;;;;;5002138;28;20948;-69
2024/01/25 01:41:56;;;;;;;98.32;92.68;;;;;;;;;;4993808;28;20435;-69
2024/01/25 01:44:23;;;;;;;100.35;94.55;;;;;;;;;;5013507;28;20458;-69
2024/01/25 01:46:54;;;;;;;102.65;96.70;;;;;;;;;;4994380;28;20426;-69
2024/01/25 01:49:22;;;;;;;99.88;94.15;;;;;;;;;;5010534;28;20427;-69
2024/01/25 01:51:50;;;;;;;110.72;104.55;;;;;;;;;;5001422;28;21071;-68
2024/01/25 01:54:17;;;;;;;97.20;91.70;;;;;;;;;;5003670;28;20442;-69
2024/01/25 01:56:48;;;;;;;110.70;104.45;;;;;;;;;;4993205;28;20909;-69
2024/01/25 01:59:15;;;;;;;104.60;98.63;;;;;;;;;;5003563;28;20929;-69
2024/01/25 02:01:43;;;;;;;108.63;102.47;;;;;;;;;;5015546;28;20485;-69
2024/01/25 02:04:10;;;;;;;105.85;99.75;;;;;;;;;;5004203;28;20523;-69
2024/01/25 02:06:38;;;;;;;104.07;98.10;;;;;;;;;;5016558;28;20902;-69
2024/01/25 02:09:05;;;;;;;118.43;111.70;;;;;;;;;;4993773;28;20464;-68
2024/01/25 02:11:32;;;;;;;97.57;91.97;;;;;;;;;;4996503;28;20456;-69
2024/01/25 02:13:59;;;;;;;91.50;86.15;;;;;;;;;;5001076;28;20916;-69
2024/01/25 02:16:27;;;;;;;84.05;79.18;;;;;;;;;;5002614;28;20434;-69
2024/01/25 02:18:57;;;;;;;79.47;74.85;;;;;;;;;;5034308;28;20725;-69
2024/01/25 02:21:24;;;;;;;85.90;80.85;;;;;;;;;;5016197;28;20518;-69
2024/01/25 02:23:51;;;;;;;89.85;84.65;;;;;;;;;;5000191;28;20436;-68
2024/01/25 02:26:19;;;;;;;96.95;91.45;;;;;;;;;;5009968;28;20484;-68
2024/01/25 02:28:49;;;;;;;99.38;93.55;;;;;;;;;;5011833;28;20671;-68
2024/01/25 02:31:16;;;;;;;90.80;85.53;;;;;;;;;;5013530;28;20804;-68
2024/01/25 02:33:43;;;;;;;92.15;86.75;;;;;;;;;;4996962;28;20579;-69
2024/01/25 02:36:10;;;;;;;111.37;105.10;;;;;;;;;;5006380;28;20502;-69
2024/01/25 02:38:40;;;;;;;107.50;101.35;;;;;;;;;;5024834;28;20455;-68
2024/01/25 02:41:08;;;;;;;100.18;94.53;;;;;;;;;;5020195;28;20472;-68
2024/01/25 02:43:36;;;;;;;89.75;84.30;;;;;;;;;;5026910;28;20517;-68
2024/01/25 02:46:03;;;;;;;88.47;83.28;;;;;;;;;;5017638;28;20437;-68
2024/01/25 02:48:32;;;;;;;87.90;82.63;;;;;;;;;;5006130;28;20461;-68
2024/01/25 02:51:00;;;;;;;92.57;87.30;;;;;;;;;;5014870;28;20446;-68
2024/01/25 02:53:27;;;;;;;108.65;102.10;;;;;;;;;;5014445;28;20426;-68
2024/01/25 02:55:54;;;;;;;107.73;100.57;;;;;;;;;;5010840;28;20951;-68
2024/01/25 02:58:21;;;;;;;108.13;101.43;;;;;;;;;;5005949;28;20954;-69
2024/01/25 03:00:49;;;;;;;104.20;98.13;;;;;;;;;;5008076;28;20459;-68
2024/01/25 03:03:16;;;;;;;107.07;100.82;;;;;;;;;;5019991;28;20433;-68
2024/01/25 03:05:43;;;;;;;85.50;80.53;;;;;;;;;;4994758;28;20423;-68
2024/01/25 03:08:11;;;;;;;95.40;89.90;;;;;;;;;;5002560;28;20846;-68
2024/01/25 03:10:38;;;;;;;98.05;92.25;;;;;;;;;;5020141;28;20431;-68
2024/01/25 03:13:05;;;;;;;103.55;97.03;;;;;;;;;;5018533;28;20497;-68
2024/01/25 03:15:33;;;;;;;99.78;93.97;;;;;;;;;;5020277;28;21020;-68
2024/01/25 03:18:04;;;;;;;99.37;93.47;;;;;;;;;;5019786;28;20475;-68
2024/01/25 03:20:31;;;;;;;100.75;94.93;;;;;;;;;;5015014;28;20455;-68
2024/01/25 03:22:58;;;;;;;110.50;104.03;;;;;;;;;;5016248;28;20472;-68
2024/01/25 03:25:25;;;;;;;105.88;99.72;;;;;;;;;;5002054;28;20442;-68
2024/01/25 03:27:56;;;;;;;112.45;105.90;;;;;;;;;;5000964;28;20441;-68
2024/01/25 03:30:26;;;;;;;80.33;75.50;;;;;;;;;;5003041;28;20514;-68
2024/01/25 03:32:53;;;;;;;100.13;94.40;;;;;;;;;;5003857;28;20452;-68
2024/01/25 03:35:20;;;;;;;95.93;90.38;;;;;;;;;;5003831;28;20430;-68
2024/01/25 03:37:48;;;;;;;73.03;68.50;;;;;;;;;;5030668;28;20440;-68
2024/01/25 03:40:15;;;;;;;100.22;94.45;;;;;;;;;;5012629;28;20979;-68
2024/01/25 03:42:42;;;;;;;89.43;84.35;;;;;;;;;;5013793;28;20447;-68
2024/01/25 03:45:30;;;;;;;87.43;82.25;;;;;;;;;;5005470;28;20430;-68
2024/01/25 03:47:57;;;;;;;88.85;83.70;;;;;;;;;;5003131;28;20435;-68
2024/01/25 03:50:24;;;;;;;97.90;92.25;;;;;;;;;;4994525;28;20423;-68
2024/01/25 03:52:52;;;;;;;78.30;73.70;;;;;;;;;;5019104;28;20451;-68
2024/01/25 03:55:22;;;;;;;97.18;91.63;;;;;;;;;;5012612;28;20434;-69
2024/01/25 03:57:49;;;;;;;96.80;91.05;;;;;;;;;;5001065;28;20437;-69
2024/01/25 04:00:17;;;;;;;103.82;97.93;;;;;;;;;;4996910;28;20500;-68
2024/01/25 04:02:44;;;;;;;104.07;98.13;;;;;;;;;;5011580;28;20445;-69
2024/01/25 04:05:11;;;;;;;102.80;96.17;;;;;;;;;;5004497;28;20430;-69
2024/01/25 04:07:38;;;;;;;97.03;91.28;;;;;;;;;;5010387;28;20917;-68
2024/01/25 04:10:06;;;;;;;97.82;92.07;;;;;;;;;;5017304;28;20436;-68
2024/01/25 04:12:36;;;;;;;100.88;95.18;;;;;;;;;;4999912;28;21105;-69
2024/01/25 04:15:06;;;;;;;102.03;96.20;;;;;;;;;;5002147;28;20785;-69
2024/01/25 04:17:33;;;;;;;100.57;94.85;;;;;;;;;;5011813;28;20508;-69
2024/01/25 04:20:01;;;;;;;90.55;85.25;;;;;;;;;;5015479;28;20504;-69
2024/01/25 04:22:28;;;;;;;93.82;88.38;;;;;;;;;;5001421;28;20427;-69
2024/01/25 04:24:56;;;;;;;84.95;79.97;;;;;;;;;;5007388;28;20433;-69
2024/01/25 04:27:23;;;;;;;90.37;85.00;;;;;;;;;;5007047;28;20554;-69
2024/01/25 04:29:52;;;;;;;94.67;89.23;;;;;;;;;;4997817;28;20496;-69
2024/01/25 04:32:20;;;;;;;94.50;89.03;;;;;;;;;;5003694;28;20915;-69
2024/01/25 04:34:47;;;;;;;87.18;82.13;;;;;;;;;;5000533;28;20430;-69
2024/01/25 04:37:15;;;;;;;86.97;81.93;;;;;;;;;;5011919;28;20431;-69
2024/01/25 04:39:43;;;;;;;82.70;77.85;;;;;;;;;;5009662;28;20831;-69
2024/01/25 04:42:10;;;;;;;86.80;81.78;;;;;;;;;;5005174;28;20429;-68
2024/01/25 04:44:37;;;;;;;82.25;77.45;;;;;;;;;;5013231;28;20459;-68
2024/01/25 04:47:04;;;;;;;83.95;79.10;;;;;;;;;;4994835;28;20496;-68
2024/01/25 04:49:31;;;;;;;88.93;83.80;;;;;;;;;;5022292;28;20478;-68
2024/01/25 04:52:02;;;;;;;81.32;76.57;;;;;;;;;;5013405;28;20433;-68
2024/01/25 04:54:29;;;;;;;85.73;80.77;;;;;;;;;;5009737;28;20429;-68
2024/01/25 04:56:58;;;;;;;90.75;85.53;;;;;;;;;;5039918;28;20430;-68
2024/01/25 04:59:25;;;;;;;85.43;80.45;;;;;;;;;;5015515;28;20483;-68
2024/01/25 05:01:55;;;;;;;90.40;85.23;;;;;;;;;;5006826;28;20543;-68
2024/01/25 05:04:25;;;;;;;84.03;79.17;;;;;;;;;;5013118;28;20597;-68
2024/01/25 05:06:52;;;;;;;89.53;84.40;;;;;;;;;;5004320;28;20459;-68
2024/01/25 05:09:23;;;;;;;92.10;86.82;;;;;;;;;;5004225;28;20436;-68
2024/01/25 05:11:50;;;;;;;97.05;91.60;;;;;;;;;;4996242;28;20893;-69
2024/01/25 05:14:18;;;;;;;86.55;81.50;;;;;;;;;;5011051;28;20444;-69
2024/01/25 05:16:45;;;;;;;92.88;87.45;;;;;;;;;;5009586;28;20511;-68
2024/01/25 05:19:12;;;;;;;92.78;87.30;;;;;;;;;;4996819;28;20900;-69
2024/01/25 05:21:44;;;;;;;94.25;88.65;;;;;;;;;;5006808;28;20448;-69
2024/01/25 05:24:12;;;;;;;91.57;85.90;;;;;;;;;;5003507;28;20476;-68
2024/01/25 05:26:39;;;;;;;94.95;89.60;;;;;;;;;;5011616;28;20505;-69
2024/01/25 05:29:06;;;;;;;89.82;84.60;;;;;;;;;;5011557;28;20495;-68
2024/01/25 05:31:33;;;;;;;96.40;90.70;;;;;;;;;;5017214;28;20444;-69
2024/01/25 05:34:01;;;;;;;95.72;90.22;;;;;;;;;;5005588;28;20468;-68
2024/01/25 05:36:29;;;;;;;95.50;89.82;;;;;;;;;;5008022;28;20790;-68
2024/01/25 05:38:56;;;;;;;91.75;86.55;;;;;;;;;;5008612;28;20432;-68
2024/01/25 05:41:23;;;;;;;93.90;88.45;;;;;;;;;;5004817;28;20517;-68
2024/01/25 05:43:50;;;;;;;87.13;81.95;;;;;;;;;;5001700;28;20967;-68
2024/01/25 05:46:18;;;;;;;85.88;81.00;;;;;;;;;;5013059;28;20903;-68
2024/01/25 05:48:45;;;;;;;67.95;63.97;;;;;;;;;;5007172;28;20437;-69
2024/01/25 05:51:13;;;;;;;80.28;74.18;;;;;;;;;;5007954;28;20496;-68
2024/01/25 05:53:41;;;;;;;83.32;78.63;;;;;;;;;;5003540;28;20435;-68
2024/01/25 05:56:08;;;;;;;69.90;65.70;;;;;;;;;;5004170;28;20436;-69
2024/01/25 05:58:36;;;;;;;77.20;72.57;;;;;;;;;;5006581;28;20438;-68
2024/01/25 06:01:03;;;;;;;52.85;49.22;;;;;;;;;;5006599;28;20436;-68
2024/01/25 06:03:35;;;;;;;56.13;52.78;;;;;;;;;;5008784;28;20432;-68
2024/01/25 06:06:02;;;;;;;56.87;53.60;;;;;;;;;;5007760;28;20769;-68
2024/01/25 06:08:32;;;;;;;66.97;63.00;;;;;;;;;;5011419;28;20492;-68
2024/01/25 06:11:00;;;;;;;77.22;72.60;;;;;;;;;;5021963;28;20442;-68
2024/01/25 06:13:28;;;;;;;80.93;76.15;;;;;;;;;;5017200;28;20444;-68
2024/01/25 06:15:55;;;;;;;72.95;68.55;;;;;;;;;;4994985;28;20438;-68
2024/01/25 06:18:22;;;;;;;78.20;73.50;;;;;;;;;;5018600;28;20437;-68
2024/01/25 06:20:51;;;;;;;80.88;75.20;;;;;;;;;;5012375;28;20515;-67
2024/01/25 06:23:18;;;;;;;70.25;66.10;;;;;;;;;;5022257;28;20432;-67
2024/01/25 06:25:47;;;;;;;78.13;73.47;;;;;;;;;;5003484;28;21070;-67
2024/01/25 06:28:15;;;;;;;81.30;76.55;;;;;;;;;;5013476;28;20437;-68
2024/01/25 06:30:42;;;;;;;71.93;67.28;;;;;;;;;;5018991;28;20450;-68
2024/01/25 06:33:09;;;;;;;74.80;70.35;;;;;;;;;;4981962;28;20446;-68
2024/01/25 06:35:37;;;;;;;67.07;63.10;;;;;;;;;;5000539;28;20464;-68
2024/01/25 06:38:04;;;;;;;76.50;71.85;;;;;;;;;;5000722;28;20435;-68
2024/01/25 06:40:31;;;;;;;72.22;67.90;;;;;;;;;;4991744;28;20438;-68
2024/01/25 06:43:01;;;;;;;80.00;75.43;;;;;;;;;;4995611;28;20438;-68
2024/01/25 06:45:28;;;;;;;86.10;81.15;;;;;;;;;;4994499;28;20433;-68
2024/01/25 06:48:25;;;;;;;77.60;72.97;;;;;;;;;;4992672;28;20492;-67
2024/01/25 06:50:52;;;;;;;79.85;75.22;;;;;;;;;;5021695;28;20549;-68
2024/01/25 06:53:20;;;;;;;85.13;80.28;;;;;;;;;;5010669;28;20484;-68
2024/01/25 06:55:47;;;;;;;79.38;74.63;;;;;;;;;;5013958;28;20493;-68
2024/01/25 06:58:14;;;;;;;77.18;72.63;;;;;;;;;;5024386;28;20501;-68
2024/01/25 07:00:42;;;;;;;81.63;76.78;;;;;;;;;;5021299;28;20782;-68
2024/01/25 07:03:10;;;;;;;86.07;81.25;;;;;;;;;;5019849;28;20833;-68
2024/01/25 07:05:38;;;;;;;84.32;79.38;;;;;;;;;;5022986;28;20810;-68
2024/01/25 07:08:13;;;;;;;77.97;73.43;;;;;;;;;;5022611;28;20499;-68
2024/01/25 07:10:40;;;;;;;77.47;72.82;;;;;;;;;;5018787;28;20441;-68
2024/01/25 07:13:07;;;;;;;95.40;89.82;;;;;;;;;;4993883;28;20777;-68
2024/01/25 07:15:37;;;;;;;88.43;83.38;;;;;;;;;;5011207;28;20515;-68
2024/01/25 07:18:05;;;;;;;85.47;80.67;;;;;;;;;;5019486;28;20430;-68
2024/01/25 07:20:32;;;;;;;84.70;79.90;;;;;;;;;;5018892;28;20457;-68
2024/01/25 07:22:59;;;;;;;83.37;78.53;;;;;;;;;;5012330;28;20940;-68
2024/01/25 07:25:27;;;;;;;80.15;75.53;;;;;;;;;;5013351;28;20676;-68
2024/01/25 07:27:54;;;;;;;80.63;75.97;;;;;;;;;;5006280;28;20439;-68
2024/01/25 07:30:21;;;;;;;80.43;75.65;;;;;;;;;;4997898;28;20783;-68
2024/01/25 07:32:49;;;;;;;78.60;74.10;;;;;;;;;;5022709;28;20435;-68
2024/01/25 07:35:17;;;;;;;69.63;65.53;;;;;;;;;;4999155;28;20444;-68
2024/01/25 07:37:47;;;;;;;62.60;58.97;;;;;;;;;;5005926;28;20439;-68
2024/01/25 07:40:17;;;;;;;77.80;73.22;;;;;;;;;;5005705;28;20440;-68
2024/01/25 07:42:44;;;;;;;75.55;71.28;;;;;;;;;;4995333;28;20432;-69
2024/01/25 07:45:14;;;;;;;76.18;71.72;;;;;;;;;;5006146;28;20451;-68
2024/01/25 07:47:42;;;;;;;72.40;68.15;;;;;;;;;;5012040;28;20493;-68
2024/01/25 07:50:09;;;;;;;71.55;67.22;;;;;;;;;;5010402;28;20474;-68
2024/01/25 07:52:37;;;;;;;69.93;65.88;;;;;;;;;;5008191;28;20428;-68
2024/01/25 07:55:11;;;;;;;64.72;60.88;;;;;;;;;;5004670;28;21012;-68
2024/01/25 07:57:38;;;;;;;74.53;70.13;;;;;;;;;;4997118;28;20443;-68
2024/01/25 08:00:07;;;;;;;69.93;65.72;;;;;;;;;;5001018;28;20449;-69
2024/01/25 08:02:40;;;;;;;78.82;74.25;;;;;;;;;;5011022;28;20437;-68
2024/01/25 08:05:08;;;;;;;81.25;76.47;;;;;;;;;;5001300;28;20442;-68
2024/01/25 08:07:37;;;;;;;60.87;57.30;;;;;;;;;;4996999;28;20946;-68
2024/01/25 08:10:07;;;;;;;77.00;72.53;;;;;;;;;;4994476;28;20478;-68
2024/01/25 08:12:35;;;;;;;80.90;76.22;;;;;;;;;;5012414;28;20435;-68
2024/01/25 08:15:03;;;;;;;90.57;85.43;;;;;;;;;;5028630;28;20437;-68
2024/01/25 08:17:32;;;;;;;83.88;79.00;;;;;;;;;;4993651;28;20547;-68
2024/01/25 08:19:59;;;;;;;89.47;84.32;;;;;;;;;;5012107;28;20969;-68
2024/01/25 08:22:30;;;;;;;90.38;85.15;;;;;;;;;;5008382;28;21443;-68
2024/01/25 08:24:57;;;;;;;91.13;85.88;;;;;;;;;;5013975;28;20452;-68
2024/01/25 08:27:25;;;;;;;91.68;86.32;;;;;;;;;;5009414;28;21360;-68
2024/01/25 08:29:52;;;;;;;96.30;90.70;;;;;;;;;;5002743;28;20487;-68
2024/01/25 08:32:19;;;;;;;98.18;92.53;;;;;;;;;;5007079;28;20483;-68
2024/01/25 08:34:46;;;;;;;95.45;90.00;;;;;;;;;;5006612;28;20437;-68
2024/01/25 08:37:13;;;;;;;94.60;89.15;;;;;;;;;;5006183;28;20486;-69
2024/01/25 08:39:43;;;;;;;93.20;87.78;;;;;;;;;;5005453;28;20491;-68
2024/01/25 08:42:10;;;;;;;93.50;88.05;;;;;;;;;;5002667;28;20868;-68
2024/01/25 08:44:39;;;;;;;98.75;93.07;;;;;;;;;;4999774;28;20438;-69
2024/01/25 08:47:06;;;;;;;102.38;96.50;;;;;;;;;;5000672;28;20452;-68
2024/01/25 08:49:38;;;;;;;110.68;104.38;;;;;;;;;;5002421;28;20467;-68
2024/01/25 08:52:06;;;;;;;102.70;96.88;;;;;;;;;;5007611;28;20440;-68
2024/01/25 08:54:34;;;;;;;102.23;96.33;;;;;;;;;;4992127;28;20527;-68
2024/01/25 08:57:05;;;;;;;97.53;91.90;;;;;;;;;;5009294;28;20440;-68
2024/01/25 08:59:33;;;;;;;102.25;96.30;;;;;;;;;;5017463;28;20437;-68
2024/01/25 09:02:00;;;;;;;106.22;100.05;;;;;;;;;;4999973;28;20439;-68
2024/01/25 09:04:27;;;;;;;107.15;100.93;;;;;;;;;;5008431;28;20429;-68
2024/01/25 09:06:55;;;;;;;105.00;98.95;;;;;;;;;;5013379;28;20433;-68
2024/01/25 09:09:24;;;;;;;101.13;95.22;;;;;;;;;;5007237;28;20504;-69
2024/01/25 09:11:51;;;;;;;96.80;91.15;;;;;;;;;;4999210;28;20483;-67
2024/01/25 09:14:18;;;;;;;100.60;94.80;;;;;;;;;;5006503;28;20491;-67
2024/01/25 09:16:45;;;;;;;103.03;97.13;;;;;;;;;;4997721;28;20435;-68
2024/01/25 09:19:13;;;;;;;98.07;92.43;;;;;;;;;;5007802;28;20433;-67
2024/01/25 09:21:42;;;;;;;86.07;80.85;;;;;;;;;;5008866;28;20492;-67
2024/01/25 09:24:10;;;;;;;95.38;89.90;;;;;;;;;;5004776;28;20513;-68
2024/01/25 09:26:39;;;;;;;88.27;82.93;;;;;;;;;;5006173;28;20483;-68
2024/01/25 09:29:07;;;;;;;79.07;74.28;;;;;;;;;;5021988;28;20523;-67
2024/01/25 09:31:34;;;;;;;66.13;62.03;;;;;;;;;;5008985;28;20433;-67
2024/01/25 09:34:04;;;;;;;70.30;66.07;;;;;;;;;;5015242;28;20485;-67
2024/01/25 09:36:31;;;;;;;83.88;78.80;;;;;;;;;;5015437;28;20528;-68
2024/01/25 09:39:03;;;;;;;81.80;76.90;;;;;;;;;;5001424;28;20433;-68
2024/01/25 09:41:31;;;;;;;87.68;82.55;;;;;;;;;;5003051;28;20441;-67
2024/01/25 09:43:58;;;;;;;104.28;98.15;;;;;;;;;;4999850;28;20438;-67
2024/01/25 09:46:26;;;;;;;105.22;99.13;;;;;;;;;;5006429;28;20437;-67
2024/01/25 09:48:54;;;;;;;108.85;102.68;;;;;;;;;;5014288;28;20433;-68
2024/01/25 09:51:22;;;;;;;108.80;102.47;;;;;;;;;;5006776;28;21014;-67
2024/01/25 09:53:54;;;;;;;105.82;99.75;;;;;;;;;;5009707;28;20647;-67
2024/01/25 09:56:23;;;;;;;95.40;89.72;;;;;;;;;;5022799;28;20432;-67
2024/01/25 09:58:50;;;;;;;105.87;99.87;;;;;;;;;;5006262;28;20452;-67
2024/01/25 10:01:18;;;;;;;109.30;102.53;;;;;;;;;;5004115;28;20492;-67
2024/01/25 10:03:46;;;;;;;99.17;93.33;;;;;;;;;;5012155;28;21983;-67
2024/01/25 10:06:15;;;;;;;82.50;77.22;;;;;;;;;;5001864;28;20441;-67
2024/01/25 10:08:42;;;;;;;112.57;105.40;;;;;;;;;;5004725;28;20435;-67
2024/01/25 10:11:13;;;;;;;109.95;103.43;;;;;;;;;;5006879;28;20531;-67
2024/01/25 10:13:48;;;;;;;112.50;105.75;;;;;;;;;;5001134;28;20464;-67
2024/01/25 10:16:16;;;;;;;84.03;79.07;;;;;;;;;;5004523;28;20452;-67
2024/01/25 10:18:44;;;;;;;94.28;88.72;;;;;;;;;;4993907;28;20438;-67
2024/01/25 10:21:13;;;;;;;231.88;219.95;;;;;;;;;;5006355;28;20439;-67
2024/01/25 10:23:47;;;;;;;221.25;210.18;;;;;;;;;;5012110;28;20464;-68
2024/01/25 10:26:16;;;;;;;182.65;173.45;;;;;;;;;;5015698;28;20440;-67
2024/01/25 10:28:50;;;;;;;151.13;143.40;;;;;;;;;;5013704;28;20472;-67
2024/01/25 10:31:18;;;;;;;63.15;59.78;;;;;;;;;;5002286;28;20469;-67
2024/01/25 10:33:45;;;;;;;60.40;57.22;;;;;;;;;;5005128;28;20433;-67
2024/01/25 10:36:14;;;;;;;61.97;58.70;;;;;;;;;;5000531;28;20432;-67
2024/01/25 10:38:45;;;;;;;57.47;54.42;;;;;;;;;;5006018;28;20464;-67
2024/01/25 10:41:17;;;;;;;50.80;48.08;;;;;;;;;;5005356;28;20443;-67
2024/01/25 10:43:47;;;;;;;47.42;44.90;;;;;;;;;;5000645;28;20498;-67
2024/01/25 10:46:15;;;;;;;54.75;51.85;;;;;;;;;;5002546;28;20525;-67
2024/01/25 10:48:43;;;;;;;42.35;40.15;;;;;;;;;;4998598;28;20437;-67
2024/01/25 10:51:13;;;;;;;45.72;43.25;;;;;;;;;;5003186;28;20513;-67
2024/01/25 10:53:42;;;;;;;71.93;67.97;;;;;;;;;;4985832;28;20515;-67
2024/01/25 10:56:10;;;;;;;49.97;47.30;;;;;;;;;;5013874;28;20978;-67
2024/01/25 10:58:41;;;;;;;52.58;49.78;;;;;;;;;;5011379;28;20434;-67
2024/01/25 11:01:11;;;;;;;53.38;50.58;;;;;;;;;;5009609;28;20860;-67
2024/01/25 11:03:43;;;;;;;49.65;47.08;;;;;;;;;;5017430;28;20800;-67
2024/01/25 11:06:11;;;;;;;140.60;132.95;;;;;;;;;;5017205;28;20507;-67
2024/01/25 11:08:41;;;;;;;149.33;140.93;;;;;;;;;;5000218;28;20556;-67
2024/01/25 11:11:09;;;;;;;123.68;116.68;;;;;;;;;;5008624;28;20442;-67
2024/01/25 11:13:40;;;;;;;119.78;112.15;;;;;;;;;;5000246;28;20430;-67
2024/01/25 11:16:12;;;;;;;139.45;131.98;;;;;;;;;;5008957;28;20435;-67
2024/01/25 11:18:49;;;;;;;125.30;118.18;;;;;;;;;;5019870;28;20436;-67
2024/01/25 11:21:30;;;;;;;139.35;131.70;;;;;;;;;;5005192;28;20466;-67
2024/01/25 11:24:03;;;;;;;119.57;112.90;;;;;;;;;;5008271;28;20438;-68
2024/01/25 11:26:33;;;;;;;117.47;110.70;;;;;;;;;;5008544;28;20434;-68
2024/01/25 11:29:01;;;;;;;147.77;139.57;;;;;;;;;;5011927;28;20434;-68
2024/01/25 11:31:28;;;;;;;131.80;124.00;;;;;;;;;;5012708;28;20635;-68
2024/01/25 11:34:00;;;;;;;146.27;138.30;;;;;;;;;;5012423;28;20530;-67
2024/01/25 11:36:28;;;;;;;121.97;115.00;;;;;;;;;;4997148;28;20557;-67
2024/01/25 11:38:57;;;;;;;246.90;234.80;;;;;;;;;;5012541;28;20432;-68
2024/01/25 11:41:24;;;;;;;194.45;184.70;;;;;;;;;;4998129;28;20437;-67
2024/01/25 11:43:51;;;;;;;238.30;226.52;;;;;;;;;;5029581;28;20431;-67
2024/01/25 11:46:21;;;;;;;199.35;189.23;;;;;;;;;;5007571;28;20470;-67
2024/01/25 11:48:48;;;;;;;186.10;176.52;;;;;;;;;;5008639;28;20430;-67
2024/01/25 11:51:16;;;;;;;155.65;147.35;;;;;;;;;;5008059;28;20483;-68
2024/01/25 11:53:44;;;;;;;139.07;131.60;;;;;;;;;;5026465;28;20853;-67
2024/01/25 11:56:13;;;;;;;237.00;225.75;;;;;;;;;;5008760;28;20455;-67
2024/01/25 11:58:40;;;;;;;237.23;225.63;;;;;;;;;;4999755;28;20895;-67
2024/01/25 12:01:09;;;;;;;130.60;123.57;;;;;;;;;;5008064;28;20436;-67
2024/01/25 12:03:37;;;;;;;199.48;189.50;;;;;;;;;;5001442;28;20497;-67
2024/01/25 12:06:05;;;;;;;219.98;208.85;;;;;;;;;;5015260;28;20524;-67
2024/01/25 12:08:33;;;;;;;187.85;177.68;;;;;;;;;;5006651;28;20513;-67
2024/01/25 12:11:04;;;;;;;227.43;216.07;;;;;;;;;;4993828;28;20437;-67
2024/01/25 12:13:32;;;;;;;229.98;219.00;;;;;;;;;;5011590;28;20512;-67
2024/01/25 12:16:00;;;;;;;178.10;169.10;;;;;;;;;;4994100;28;20449;-67
2024/01/25 12:18:28;;;;;;;202.48;192.23;;;;;;;;;;5017609;28;20954;-67
2024/01/25 12:20:58;;;;;;;228.73;217.48;;;;;;;;;;5007040;28;20488;-67
2024/01/25 12:23:30;;;;;;;163.43;155.05;;;;;;;;;;5010091;28;20436;-67
2024/01/25 12:26:01;;;;;;;117.18;110.63;;;;;;;;;;5004766;28;21015;-67
2024/01/25 12:28:30;;;;;;;87.32;82.15;;;;;;;;;;5011482;28;20440;-67
2024/01/25 12:31:00;;;;;;;122.95;116.22;;;;;;;;;;4997683;28;20434;-67
2024/01/25 12:33:28;;;;;;;136.85;129.70;;;;;;;;;;5030332;28;20445;-67
2024/01/25 12:35:55;;;;;;;155.35;147.32;;;;;;;;;;5007301;28;20435;-67
2024/01/25 12:38:24;;;;;;;112.35;106.82;;;;;;;;;;5007470;28;20491;-67
2024/01/25 12:40:56;;;;;;;125.18;118.28;;;;;;;;;;5000594;28;20432;-67
2024/01/25 12:43:24;;;;;;;93.85;88.18;;;;;;;;;;5001544;28;20435;-67
2024/01/25 12:45:53;;;;;;;117.68;111.15;;;;;;;;;;5003919;28;20972;-67
2024/01/25 12:48:24;;;;;;;100.93;95.10;;;;;;;;;;5006378;28;20557;-67
2024/01/25 12:50:51;;;;;;;163.40;155.38;;;;;;;;;;5006479;28;20461;-67
2024/01/25 12:53:18;;;;;;;200.75;190.85;;;;;;;;;;5004713;28;20446;-67
2024/01/25 12:55:46;;;;;;;128.75;122.25;;;;;;;;;;4993772;28;20992;-65
2024/01/25 12:58:13;;;;;;;94.68;89.85;;;;;;;;;;5003600;28;20506;-66
2024/01/25 13:00:41;;;;;;;53.47;50.63;;;;;;;;;;5013502;28;20835;-66
2024/01/25 13:03:12;;;;;;;159.85;151.77;;;;;;;;;;4996541;28;21246;-66
2024/01/25 13:05:40;;;;;;;185.07;175.82;;;;;;;;;;4997757;28;20524;-66
2024/01/25 13:08:07;;;;;;;165.35;156.38;;;;;;;;;;5001226;28;20438;-66
2024/01/25 13:10:35;;;;;;;144.95;137.55;;;;;;;;;;4998892;28;20935;-66
2024/01/25 13:13:02;;;;;;;146.75;139.25;;;;;;;;;;4993689;28;20524;-66
2024/01/25 13:15:29;;;;;;;143.20;134.32;;;;;;;;;;5012391;28;20781;-66
2024/01/25 13:18:00;;;;;;;111.82;105.70;;;;;;;;;;5005539;28;20435;-66
2024/01/25 13:20:28;;;;;;;101.95;96.22;;;;;;;;;;5014994;28;20480;-66
2024/01/25 13:22:55;;;;;;;114.30;107.97;;;;;;;;;;5003338;28;20428;-66
2024/01/25 13:25:22;;;;;;;118.90;112.35;;;;;;;;;;5005239;28;20778;-66
2024/01/25 13:27:49;;;;;;;133.35;126.18;;;;;;;;;;5010260;28;20436;-66
2024/01/25 13:30:17;;;;;;;114.60;107.80;;;;;;;;;;5004846;28;20468;-66
2024/01/25 13:32:44;;;;;;;109.32;103.28;;;;;;;;;;5013152;28;20429;-66
2024/01/25 13:35:12;;;;;;;140.35;132.98;;;;;;;;;;5012879;28;20491;-66
2024/01/25 13:37:39;;;;;;;124.63;117.90;;;;;;;;;;5003891;28;20434;-66
2024/01/25 13:40:09;;;;;;;158.73;150.17;;;;;;;;;;5006647;28;20494;-66
2024/01/25 13:42:37;;;;;;;193.45;183.63;;;;;;;;;;4983456;28;20892;-66
2024/01/25 13:45:07;;;;;;;205.18;194.85;;;;;;;;;;5010143;28;20514;-66
2024/01/25 13:47:34;;;;;;;89.93;85.20;;;;;;;;;;5006230;28;20464;-66
2024/01/25 13:50:02;;;;;;;85.50;80.43;;;;;;;;;;5006733;28;20490;-66
2024/01/25 13:52:29;;;;;;;218.18;207.35;;;;;;;;;;4994317;28;20817;-67
2024/01/25 13:54:59;;;;;;;204.90;194.57;;;;;;;;;;5014757;28;20432;-67
2024/01/25 13:57:26;;;;;;;222.77;211.63;;;;;;;;;;5005306;28;20988;-67
2024/01/25 13:59:54;;;;;;;170.87;162.17;;;;;;;;;;5005597;28;20436;-67
2024/01/25 14:02:21;;;;;;;208.27;198.07;;;;;;;;;;4998372;28;20436;-67
2024/01/25 14:04:48;;;;;;;209.25;197.82;;;;;;;;;;4989716;28;20444;-67
2024/01/25 14:07:19;;;;;;;92.57;87.00;;;;;;;;;;5001433;28;20432;-67
2024/01/25 14:09:47;;;;;;;112.82;106.45;;;;;;;;;;4999734;28;20864;-67
2024/01/25 14:12:18;;;;;;;97.47;91.20;;;;;;;;;;4994085;28;20809;-67
2024/01/25 14:14:47;;;;;;;149.38;141.07;;;;;;;;;;5002955;28;20921;-66